sensor_id;sensor_type;location;lat;lon;timestamp;P1;durP1;ratioP1;P2;durP2;ratioP2
46719;SDS011;32452;51.382;-0.002;2023-04-25T00:01:54;19.40;;;4.88;;
46719;SDS011;32452;51.382;-0.002;2023-04-25T00:04:48;18.60;;;4.10;;
46719;SDS011;32452;51.382;-0.002;2023-04-25T00:07:37;19.23;;;4.43;;
46719;SDS011;32452;51.382;-0.002;2023-04-25T00:10:23;27.48;;;5.35;;
46719;SDS011;32452;51.382;-0.002;2023-04-25T00:13:11;27.02;;;5.47;;
46719;SDS011;32452;51.382;-0.002;2023-04-25T00:16:01;21.00;;;4.05;;
46719;SDS011;32452;51.382;-0.002;2023-04-25T00:18:51;15.63;;;3.95;;
46719;SDS011;32452;51.382;-0.002;2023-04-25T00:21:38;21.95;;;5.00;;
46719;SDS011;32452;51.382;-0.002;2023-04-25T00:24:25;24.02;;;4.05;;
46719;SDS011;32452;51.382;-0.002;2023-04-25T00:27:11;17.20;;;4.70;;
46719;SDS011;32452;51.382;-0.002;2023-04-25T00:29:59;21.20;;;4.22;;
46719;SDS011;32452;51.382;-0.002;2023-04-25T00:32:45;16.17;;;3.72;;
46719;SDS011;32452;51.382;-0.002;2023-04-25T00:35:31;14.07;;;3.85;;
46719;SDS011;32452;51.382;-0.002;2023-04-25T00:38:17;26.30;;;4.70;;
46719;SDS011;32452;51.382;-0.002;2023-04-25T00:41:02;20.88;;;4.82;;
46719;SDS011;32452;51.382;-0.002;2023-04-25T00:43:49;18.50;;;3.97;;
46719;SDS011;32452;51.382;-0.002;2023-04-25T00:46:36;16.55;;;4.45;;
46719;SDS011;32452;51.382;-0.002;2023-04-25T00:49:22;16.95;;;4.88;;
46719;SDS011;32452;51.382;-0.002;2023-04-25T00:52:07;20.88;;;4.30;;
46719;SDS011;32452;51.382;-0.002;2023-04-25T00:54:53;22.48;;;4.53;;
46719;SDS011;32452;51.382;-0.002;2023-04-25T00:57:39;13.35;;;3.30;;
46719;SDS011;32452;51.382;-0.002;2023-04-25T01:00:25;48.75;;;5.63;;
46719;SDS011;32452;51.382;-0.002;2023-04-25T01:03:10;18.20;;;3.30;;
46719;SDS011;32452;51.382;-0.002;2023-04-25T01:05:57;14.02;;;3.28;;
46719;SDS011;32452;51.382;-0.002;2023-04-25T01:08:43;19.90;;;3.88;;
46719;SDS011;32452;51.382;-0.002;2023-04-25T01:11:29;22.42;;;4.38;;
46719;SDS011;32452;51.382;-0.002;2023-04-25T01:14:14;13.43;;;3.53;;
46719;SDS011;32452;51.382;-0.002;2023-04-25T01:17:00;19.02;;;3.95;;
46719;SDS011;32452;51.382;-0.002;2023-04-25T01:19:46;17.42;;;3.97;;
46719;SDS011;32452;51.382;-0.002;2023-04-25T01:22:33;14.93;;;3.40;;
46719;SDS011;32452;51.382;-0.002;2023-04-25T01:25:19;17.77;;;4.05;;
46719;SDS011;32452;51.382;-0.002;2023-04-25T01:28:05;22.10;;;3.63;;
46719;SDS011;32452;51.382;-0.002;2023-04-25T01:30:50;17.52;;;4.20;;
46719;SDS011;32452;51.382;-0.002;2023-04-25T01:33:36;14.98;;;3.38;;
46719;SDS011;32452;51.382;-0.002;2023-04-25T01:36:22;18.05;;;3.08;;
46719;SDS011;32452;51.382;-0.002;2023-04-25T01:39:08;19.35;;;3.88;;
46719;SDS011;32452;51.382;-0.002;2023-04-25T01:41:54;15.68;;;4.20;;
46719;SDS011;32452;51.382;-0.002;2023-04-25T01:44:41;13.85;;;2.90;;
46719;SDS011;32452;51.382;-0.002;2023-04-25T01:47:26;15.25;;;4.22;;
46719;SDS011;32452;51.382;-0.002;2023-04-25T01:50:15;14.93;;;3.85;;
46719;SDS011;32452;51.382;-0.002;2023-04-25T01:53:02;14.27;;;3.50;;
46719;SDS011;32452;51.382;-0.002;2023-04-25T01:55:49;13.30;;;3.05;;
46719;SDS011;32452;51.382;-0.002;2023-04-25T01:58:34;18.75;;;4.00;;
46719;SDS011;32452;51.382;-0.002;2023-04-25T02:01:20;13.25;;;3.10;;
46719;SDS011;32452;51.382;-0.002;2023-04-25T02:04:05;15.63;;;3.30;;
46719;SDS011;32452;51.382;-0.002;2023-04-25T02:06:51;16.13;;;4.18;;
46719;SDS011;32452;51.382;-0.002;2023-04-25T02:09:37;9.43;;;3.05;;
46719;SDS011;32452;51.382;-0.002;2023-04-25T02:12:22;13.75;;;3.20;;
46719;SDS011;32452;51.382;-0.002;2023-04-25T02:15:08;21.27;;;3.83;;
46719;SDS011;32452;51.382;-0.002;2023-04-25T02:17:53;11.27;;;3.33;;
46719;SDS011;32452;51.382;-0.002;2023-04-25T02:20:39;11.30;;;3.30;;
46719;SDS011;32452;51.382;-0.002;2023-04-25T02:23:25;15.30;;;3.22;;
46719;SDS011;32452;51.382;-0.002;2023-04-25T02:26:10;13.20;;;3.40;;
46719;SDS011;32452;51.382;-0.002;2023-04-25T02:28:56;16.77;;;3.78;;
46719;SDS011;32452;51.382;-0.002;2023-04-25T02:31:42;18.15;;;3.53;;
46719;SDS011;32452;51.382;-0.002;2023-04-25T02:34:27;18.23;;;3.70;;
46719;SDS011;32452;51.382;-0.002;2023-04-25T02:37:13;15.57;;;3.50;;
46719;SDS011;32452;51.382;-0.002;2023-04-25T02:39:59;20.02;;;3.40;;
46719;SDS011;32452;51.382;-0.002;2023-04-25T02:42:45;16.05;;;5.03;;
46719;SDS011;32452;51.382;-0.002;2023-04-25T02:45:32;14.32;;;3.80;;
46719;SDS011;32452;51.382;-0.002;2023-04-25T02:48:18;19.13;;;4.03;;
46719;SDS011;32452;51.382;-0.002;2023-04-25T02:51:04;17.88;;;4.10;;
46719;SDS011;32452;51.382;-0.002;2023-04-25T02:53:49;21.75;;;3.85;;
46719;SDS011;32452;51.382;-0.002;2023-04-25T02:56:35;19.92;;;4.18;;
46719;SDS011;32452;51.382;-0.002;2023-04-25T02:59:21;16.02;;;3.63;;
46719;SDS011;32452;51.382;-0.002;2023-04-25T03:02:06;11.82;;;4.90;;
46719;SDS011;32452;51.382;-0.002;2023-04-25T03:04:52;12.55;;;2.95;;
46719;SDS011;32452;51.382;-0.002;2023-04-25T03:07:38;14.90;;;3.40;;
46719;SDS011;32452;51.382;-0.002;2023-04-25T03:10:24;22.58;;;3.38;;
46719;SDS011;32452;51.382;-0.002;2023-04-25T03:13:10;15.20;;;4.20;;
46719;SDS011;32452;51.382;-0.002;2023-04-25T03:15:56;16.13;;;3.72;;
46719;SDS011;32452;51.382;-0.002;2023-04-25T03:18:41;13.50;;;3.47;;
46719;SDS011;32452;51.382;-0.002;2023-04-25T03:21:27;14.40;;;3.75;;
46719;SDS011;32452;51.382;-0.002;2023-04-25T03:24:13;12.43;;;3.15;;
46719;SDS011;32452;51.382;-0.002;2023-04-25T03:26:59;13.82;;;3.28;;
46719;SDS011;32452;51.382;-0.002;2023-04-25T03:29:45;15.02;;;3.25;;
46719;SDS011;32452;51.382;-0.002;2023-04-25T03:32:30;16.02;;;4.55;;
46719;SDS011;32452;51.382;-0.002;2023-04-25T03:35:16;14.23;;;3.53;;
46719;SDS011;32452;51.382;-0.002;2023-04-25T03:38:02;16.80;;;3.20;;
46719;SDS011;32452;51.382;-0.002;2023-04-25T03:40:47;15.13;;;3.53;;
46719;SDS011;32452;51.382;-0.002;2023-04-25T03:43:33;19.75;;;3.97;;
46719;SDS011;32452;51.382;-0.002;2023-04-25T03:46:18;14.52;;;3.13;;
46719;SDS011;32452;51.382;-0.002;2023-04-25T03:49:04;16.90;;;3.50;;
46719;SDS011;32452;51.382;-0.002;2023-04-25T03:51:50;13.15;;;3.40;;
46719;SDS011;32452;51.382;-0.002;2023-04-25T03:54:35;17.73;;;3.85;;
46719;SDS011;32452;51.382;-0.002;2023-04-25T03:57:21;13.80;;;3.80;;
46719;SDS011;32452;51.382;-0.002;2023-04-25T04:00:07;16.52;;;5.15;;
46719;SDS011;32452;51.382;-0.002;2023-04-25T04:02:52;21.02;;;4.68;;
46719;SDS011;32452;51.382;-0.002;2023-04-25T04:05:38;18.15;;;3.25;;
46719;SDS011;32452;51.382;-0.002;2023-04-25T04:08:25;18.45;;;3.67;;
46719;SDS011;32452;51.382;-0.002;2023-04-25T04:11:11;24.42;;;4.95;;
46719;SDS011;32452;51.382;-0.002;2023-04-25T04:13:56;22.35;;;4.18;;
46719;SDS011;32452;51.382;-0.002;2023-04-25T04:16:42;15.20;;;3.35;;
46719;SDS011;32452;51.382;-0.002;2023-04-25T04:19:27;12.85;;;4.05;;
46719;SDS011;32452;51.382;-0.002;2023-04-25T04:22:13;22.23;;;4.60;;
46719;SDS011;32452;51.382;-0.002;2023-04-25T04:24:59;16.30;;;4.63;;
46719;SDS011;32452;51.382;-0.002;2023-04-25T04:27:44;15.68;;;4.28;;
46719;SDS011;32452;51.382;-0.002;2023-04-25T04:30:30;12.13;;;3.33;;
46719;SDS011;32452;51.382;-0.002;2023-04-25T04:33:17;17.73;;;3.78;;
46719;SDS011;32452;51.382;-0.002;2023-04-25T04:36:05;14.93;;;3.13;;
46719;SDS011;32452;51.382;-0.002;2023-04-25T04:38:52;11.75;;;3.28;;
46719;SDS011;32452;51.382;-0.002;2023-04-25T04:41:37;17.80;;;3.40;;
46719;SDS011;32452;51.382;-0.002;2023-04-25T04:44:23;16.42;;;3.50;;
46719;SDS011;32452;51.382;-0.002;2023-04-25T04:47:09;13.02;;;3.17;;
46719;SDS011;32452;51.382;-0.002;2023-04-25T04:49:55;19.02;;;3.65;;
46719;SDS011;32452;51.382;-0.002;2023-04-25T04:52:40;18.67;;;3.70;;
46719;SDS011;32452;51.382;-0.002;2023-04-25T04:55:27;13.38;;;3.47;;
46719;SDS011;32452;51.382;-0.002;2023-04-25T04:58:13;14.30;;;4.15;;
46719;SDS011;32452;51.382;-0.002;2023-04-25T05:01:00;10.77;;;3.05;;
46719;SDS011;32452;51.382;-0.002;2023-04-25T05:03:46;13.68;;;3.30;;
46719;SDS011;32452;51.382;-0.002;2023-04-25T05:06:32;16.48;;;4.28;;
46719;SDS011;32452;51.382;-0.002;2023-04-25T05:09:17;11.50;;;3.25;;
46719;SDS011;32452;51.382;-0.002;2023-04-25T05:12:04;14.50;;;3.83;;
46719;SDS011;32452;51.382;-0.002;2023-04-25T05:14:49;16.00;;;4.10;;
46719;SDS011;32452;51.382;-0.002;2023-04-25T05:17:35;14.85;;;3.53;;
46719;SDS011;32452;51.382;-0.002;2023-04-25T05:20:20;17.23;;;4.53;;
46719;SDS011;32452;51.382;-0.002;2023-04-25T05:23:06;14.45;;;3.30;;
46719;SDS011;32452;51.382;-0.002;2023-04-25T05:25:51;14.45;;;3.88;;
46719;SDS011;32452;51.382;-0.002;2023-04-25T05:28:37;11.25;;;3.05;;
46719;SDS011;32452;51.382;-0.002;2023-04-25T05:31:22;13.13;;;4.10;;
46719;SDS011;32452;51.382;-0.002;2023-04-25T05:34:08;15.48;;;3.90;;
46719;SDS011;32452;51.382;-0.002;2023-04-25T05:36:54;17.83;;;3.75;;
46719;SDS011;32452;51.382;-0.002;2023-04-25T05:39:40;21.42;;;3.78;;
46719;SDS011;32452;51.382;-0.002;2023-04-25T05:42:26;23.55;;;4.70;;
46719;SDS011;32452;51.382;-0.002;2023-04-25T05:45:11;16.73;;;3.83;;
46719;SDS011;32452;51.382;-0.002;2023-04-25T05:47:57;17.42;;;3.92;;
46719;SDS011;32452;51.382;-0.002;2023-04-25T05:50:43;15.45;;;3.78;;
46719;SDS011;32452;51.382;-0.002;2023-04-25T05:53:28;13.43;;;3.72;;
46719;SDS011;32452;51.382;-0.002;2023-04-25T05:56:14;10.45;;;3.78;;
46719;SDS011;32452;51.382;-0.002;2023-04-25T05:59:00;13.75;;;3.63;;
46719;SDS011;32452;51.382;-0.002;2023-04-25T06:01:46;12.48;;;4.07;;
46719;SDS011;32452;51.382;-0.002;2023-04-25T06:04:31;17.48;;;4.13;;
46719;SDS011;32452;51.382;-0.002;2023-04-25T06:07:18;11.25;;;3.25;;
46719;SDS011;32452;51.382;-0.002;2023-04-25T06:10:05;12.57;;;3.55;;
46719;SDS011;32452;51.382;-0.002;2023-04-25T06:12:51;21.50;;;3.97;;
46719;SDS011;32452;51.382;-0.002;2023-04-25T06:15:36;15.98;;;3.75;;
46719;SDS011;32452;51.382;-0.002;2023-04-25T06:18:22;15.13;;;2.90;;
46719;SDS011;32452;51.382;-0.002;2023-04-25T06:21:08;15.65;;;3.28;;
46719;SDS011;32452;51.382;-0.002;2023-04-25T06:23:53;10.38;;;3.40;;
46719;SDS011;32452;51.382;-0.002;2023-04-25T06:26:39;14.20;;;2.70;;
46719;SDS011;32452;51.382;-0.002;2023-04-25T06:29:25;9.95;;;2.72;;
46719;SDS011;32452;51.382;-0.002;2023-04-25T06:32:10;10.20;;;2.97;;
46719;SDS011;32452;51.382;-0.002;2023-04-25T06:34:56;11.45;;;2.78;;
46719;SDS011;32452;51.382;-0.002;2023-04-25T06:37:41;15.18;;;3.50;;
46719;SDS011;32452;51.382;-0.002;2023-04-25T06:40:27;18.50;;;3.50;;
46719;SDS011;32452;51.382;-0.002;2023-04-25T06:43:12;17.13;;;3.15;;
46719;SDS011;32452;51.382;-0.002;2023-04-25T06:45:58;11.73;;;2.95;;
46719;SDS011;32452;51.382;-0.002;2023-04-25T06:48:47;14.40;;;2.70;;
46719;SDS011;32452;51.382;-0.002;2023-04-25T06:51:33;12.73;;;3.92;;
46719;SDS011;32452;51.382;-0.002;2023-04-25T06:54:18;10.65;;;2.70;;
46719;SDS011;32452;51.382;-0.002;2023-04-25T06:57:04;9.23;;;3.38;;
46719;SDS011;32452;51.382;-0.002;2023-04-25T06:59:49;15.82;;;2.92;;
46719;SDS011;32452;51.382;-0.002;2023-04-25T07:02:35;10.13;;;3.70;;
46719;SDS011;32452;51.382;-0.002;2023-04-25T07:05:21;14.60;;;3.58;;
46719;SDS011;32452;51.382;-0.002;2023-04-25T07:08:07;14.45;;;3.47;;
46719;SDS011;32452;51.382;-0.002;2023-04-25T07:10:52;11.27;;;2.88;;
46719;SDS011;32452;51.382;-0.002;2023-04-25T07:13:38;11.18;;;3.30;;
46719;SDS011;32452;51.382;-0.002;2023-04-25T07:16:23;10.65;;;2.83;;
46719;SDS011;32452;51.382;-0.002;2023-04-25T07:19:09;11.10;;;3.40;;
46719;SDS011;32452;51.382;-0.002;2023-04-25T07:21:55;14.38;;;2.97;;
46719;SDS011;32452;51.382;-0.002;2023-04-25T07:24:40;12.60;;;3.30;;
46719;SDS011;32452;51.382;-0.002;2023-04-25T07:27:26;13.38;;;3.33;;
46719;SDS011;32452;51.382;-0.002;2023-04-25T07:30:12;11.32;;;2.65;;
46719;SDS011;32452;51.382;-0.002;2023-04-25T07:32:57;9.30;;;2.55;;
46719;SDS011;32452;51.382;-0.002;2023-04-25T07:35:43;13.95;;;3.03;;
46719;SDS011;32452;51.382;-0.002;2023-04-25T07:38:29;16.25;;;3.05;;
46719;SDS011;32452;51.382;-0.002;2023-04-25T07:41:14;9.35;;;2.67;;
46719;SDS011;32452;51.382;-0.002;2023-04-25T07:43:59;13.90;;;3.20;;
46719;SDS011;32452;51.382;-0.002;2023-04-25T07:46:45;12.13;;;2.67;;
46719;SDS011;32452;51.382;-0.002;2023-04-25T07:49:30;14.75;;;4.07;;
46719;SDS011;32452;51.382;-0.002;2023-04-25T07:52:16;13.50;;;3.28;;
46719;SDS011;32452;51.382;-0.002;2023-04-25T07:55:01;9.77;;;2.92;;
46719;SDS011;32452;51.382;-0.002;2023-04-25T07:57:48;11.02;;;2.92;;
46719;SDS011;32452;51.382;-0.002;2023-04-25T08:00:33;11.50;;;3.05;;
46719;SDS011;32452;51.382;-0.002;2023-04-25T08:03:19;11.63;;;2.97;;
46719;SDS011;32452;51.382;-0.002;2023-04-25T08:06:10;12.50;;;3.50;;
46719;SDS011;32452;51.382;-0.002;2023-04-25T08:09:06;10.05;;;2.67;;
46719;SDS011;32452;51.382;-0.002;2023-04-25T08:11:54;7.85;;;2.08;;
46719;SDS011;32452;51.382;-0.002;2023-04-25T08:14:39;10.07;;;2.60;;
46719;SDS011;32452;51.382;-0.002;2023-04-25T08:17:25;10.23;;;2.45;;
46719;SDS011;32452;51.382;-0.002;2023-04-25T08:20:10;7.05;;;2.15;;
46719;SDS011;32452;51.382;-0.002;2023-04-25T08:22:56;11.52;;;3.00;;
46719;SDS011;32452;51.382;-0.002;2023-04-25T08:25:42;11.23;;;2.40;;
46719;SDS011;32452;51.382;-0.002;2023-04-25T08:28:27;7.38;;;2.20;;
46719;SDS011;32452;51.382;-0.002;2023-04-25T08:31:13;9.73;;;2.10;;
46719;SDS011;32452;51.382;-0.002;2023-04-25T08:33:58;7.68;;;2.08;;
46719;SDS011;32452;51.382;-0.002;2023-04-25T08:36:44;9.43;;;2.15;;
46719;SDS011;32452;51.382;-0.002;2023-04-25T08:39:29;9.85;;;2.50;;
46719;SDS011;32452;51.382;-0.002;2023-04-25T08:42:15;9.50;;;2.28;;
46719;SDS011;32452;51.382;-0.002;2023-04-25T08:45:01;7.03;;;2.20;;
46719;SDS011;32452;51.382;-0.002;2023-04-25T08:47:51;10.38;;;2.78;;
46719;SDS011;32452;51.382;-0.002;2023-04-25T08:50:45;8.20;;;2.30;;
46719;SDS011;32452;51.382;-0.002;2023-04-25T08:53:37;8.07;;;2.30;;
46719;SDS011;32452;51.382;-0.002;2023-04-25T08:56:28;6.85;;;2.05;;
46719;SDS011;32452;51.382;-0.002;2023-04-25T08:59:14;8.77;;;2.17;;
46719;SDS011;32452;51.382;-0.002;2023-04-25T09:02:00;9.98;;;2.53;;
46719;SDS011;32452;51.382;-0.002;2023-04-25T09:04:46;10.38;;;2.10;;
46719;SDS011;32452;51.382;-0.002;2023-04-25T09:07:32;10.52;;;2.25;;
46719;SDS011;32452;51.382;-0.002;2023-04-25T09:10:18;10.80;;;2.40;;
46719;SDS011;32452;51.382;-0.002;2023-04-25T09:13:08;9.20;;;2.20;;
46719;SDS011;32452;51.382;-0.002;2023-04-25T09:15:57;5.70;;;1.88;;
46719;SDS011;32452;51.382;-0.002;2023-04-25T09:18:43;8.73;;;2.45;;
46719;SDS011;32452;51.382;-0.002;2023-04-25T09:21:33;7.70;;;2.20;;
46719;SDS011;32452;51.382;-0.002;2023-04-25T09:24:29;6.65;;;2.05;;
46719;SDS011;32452;51.382;-0.002;2023-04-25T09:27:18;8.85;;;2.20;;
46719;SDS011;32452;51.382;-0.002;2023-04-25T09:30:07;7.32;;;2.30;;
46719;SDS011;32452;51.382;-0.002;2023-04-25T09:32:54;7.80;;;1.60;;
46719;SDS011;32452;51.382;-0.002;2023-04-25T09:35:43;7.13;;;2.17;;
46719;SDS011;32452;51.382;-0.002;2023-04-25T09:38:31;10.80;;;2.25;;
46719;SDS011;32452;51.382;-0.002;2023-04-25T09:41:22;6.00;;;1.92;;
46719;SDS011;32452;51.382;-0.002;2023-04-25T09:44:12;8.98;;;1.70;;
46719;SDS011;32452;51.382;-0.002;2023-04-25T09:46:57;9.25;;;1.95;;
46719;SDS011;32452;51.382;-0.002;2023-04-25T09:49:44;9.10;;;1.88;;
46719;SDS011;32452;51.382;-0.002;2023-04-25T09:52:29;6.40;;;1.92;;
46719;SDS011;32452;51.382;-0.002;2023-04-25T09:55:15;5.32;;;2.03;;
46719;SDS011;32452;51.382;-0.002;2023-04-25T09:58:05;6.28;;;1.73;;
46719;SDS011;32452;51.382;-0.002;2023-04-25T10:00:53;7.40;;;1.65;;
46719;SDS011;32452;51.382;-0.002;2023-04-25T10:03:43;8.35;;;2.17;;
46719;SDS011;32452;51.382;-0.002;2023-04-25T10:06:34;9.52;;;2.03;;
46719;SDS011;32452;51.382;-0.002;2023-04-25T10:09:21;7.72;;;2.55;;
46719;SDS011;32452;51.382;-0.002;2023-04-25T10:12:10;6.13;;;1.88;;
46719;SDS011;32452;51.382;-0.002;2023-04-25T10:14:57;6.70;;;1.80;;
46719;SDS011;32452;51.382;-0.002;2023-04-25T10:17:43;6.30;;;2.40;;
46719;SDS011;32452;51.382;-0.002;2023-04-25T10:20:30;6.88;;;2.05;;
46719;SDS011;32452;51.382;-0.002;2023-04-25T10:23:16;7.40;;;1.90;;
46719;SDS011;32452;51.382;-0.002;2023-04-25T10:26:02;9.30;;;2.45;;
46719;SDS011;32452;51.382;-0.002;2023-04-25T10:28:58;8.82;;;2.05;;
46719;SDS011;32452;51.382;-0.002;2023-04-25T10:31:46;8.65;;;1.70;;
46719;SDS011;32452;51.382;-0.002;2023-04-25T10:34:42;6.35;;;1.70;;
46719;SDS011;32452;51.382;-0.002;2023-04-25T10:37:32;8.18;;;2.03;;
46719;SDS011;32452;51.382;-0.002;2023-04-25T10:40:21;6.70;;;2.40;;
46719;SDS011;32452;51.382;-0.002;2023-04-25T10:49:07;4.93;;;1.35;;
46719;SDS011;32452;51.382;-0.002;2023-04-25T10:55:17;4.85;;;1.75;;
46719;SDS011;32452;51.382;-0.002;2023-04-25T10:58:09;6.75;;;1.73;;
46719;SDS011;32452;51.382;-0.002;2023-04-25T11:01:02;3.72;;;1.63;;
46719;SDS011;32452;51.382;-0.002;2023-04-25T11:03:47;12.45;;;2.15;;
46719;SDS011;32452;51.382;-0.002;2023-04-25T11:09:53;5.85;;;1.40;;
46719;SDS011;32452;51.382;-0.002;2023-04-25T11:12:39;7.63;;;1.80;;
46719;SDS011;32452;51.382;-0.002;2023-04-25T11:15:25;10.25;;;1.65;;
46719;SDS011;32452;51.382;-0.002;2023-04-25T11:18:15;4.60;;;1.60;;
46719;SDS011;32452;51.382;-0.002;2023-04-25T11:21:02;5.20;;;1.50;;
46719;SDS011;32452;51.382;-0.002;2023-04-25T11:23:48;8.70;;;1.70;;
46719;SDS011;32452;51.382;-0.002;2023-04-25T11:26:34;9.82;;;2.08;;
46719;SDS011;32452;51.382;-0.002;2023-04-25T11:29:22;6.32;;;1.70;;
46719;SDS011;32452;51.382;-0.002;2023-04-25T11:32:08;5.95;;;1.83;;
46719;SDS011;32452;51.382;-0.002;2023-04-25T11:34:54;5.65;;;1.27;;
46719;SDS011;32452;51.382;-0.002;2023-04-25T11:37:40;6.82;;;1.73;;
46719;SDS011;32452;51.382;-0.002;2023-04-25T11:40:26;6.28;;;1.70;;
46719;SDS011;32452;51.382;-0.002;2023-04-25T11:43:12;6.05;;;1.80;;
46719;SDS011;32452;51.382;-0.002;2023-04-25T11:45:57;7.68;;;2.42;;
46719;SDS011;32452;51.382;-0.002;2023-04-25T11:48:43;9.80;;;2.20;;
46719;SDS011;32452;51.382;-0.002;2023-04-25T11:51:30;8.85;;;2.10;;
46719;SDS011;32452;51.382;-0.002;2023-04-25T11:54:25;5.30;;;1.60;;
46719;SDS011;32452;51.382;-0.002;2023-04-25T11:57:11;4.32;;;1.63;;
46719;SDS011;32452;51.382;-0.002;2023-04-25T12:00:04;3.55;;;1.42;;
46719;SDS011;32452;51.382;-0.002;2023-04-25T12:03:02;5.32;;;1.40;;
46719;SDS011;32452;51.382;-0.002;2023-04-25T12:05:48;5.20;;;1.70;;
46719;SDS011;32452;51.382;-0.002;2023-04-25T12:08:35;6.70;;;1.77;;
46719;SDS011;32452;51.382;-0.002;2023-04-25T12:11:21;3.13;;;1.40;;
46719;SDS011;32452;51.382;-0.002;2023-04-25T12:14:07;7.13;;;1.85;;
46719;SDS011;32452;51.382;-0.002;2023-04-25T12:16:55;6.07;;;2.10;;
46719;SDS011;32452;51.382;-0.002;2023-04-25T12:19:42;6.93;;;2.53;;
46719;SDS011;32452;51.382;-0.002;2023-04-25T12:22:29;6.97;;;2.35;;
46719;SDS011;32452;51.382;-0.002;2023-04-25T12:28:24;9.40;;;2.53;;
46719;SDS011;32452;51.382;-0.002;2023-04-25T12:31:12;5.45;;;2.10;;
46719;SDS011;32452;51.382;-0.002;2023-04-25T12:34:00;6.00;;;2.10;;
46719;SDS011;32452;51.382;-0.002;2023-04-25T12:36:45;7.25;;;2.67;;
46719;SDS011;32452;51.382;-0.002;2023-04-25T12:39:31;5.00;;;2.20;;
46719;SDS011;32452;51.382;-0.002;2023-04-25T12:42:16;6.43;;;2.35;;
46719;SDS011;32452;51.382;-0.002;2023-04-25T12:45:02;4.57;;;1.63;;
46719;SDS011;32452;51.382;-0.002;2023-04-25T12:47:48;4.40;;;1.98;;
46719;SDS011;32452;51.382;-0.002;2023-04-25T12:50:33;8.27;;;2.30;;
46719;SDS011;32452;51.382;-0.002;2023-04-25T12:53:20;6.68;;;2.05;;
46719;SDS011;32452;51.382;-0.002;2023-04-25T12:56:08;9.38;;;3.63;;
46719;SDS011;32452;51.382;-0.002;2023-04-25T12:58:53;6.82;;;2.08;;
46719;SDS011;32452;51.382;-0.002;2023-04-25T13:01:39;6.00;;;1.92;;
46719;SDS011;32452;51.382;-0.002;2023-04-25T13:04:24;6.70;;;2.42;;
46719;SDS011;32452;51.382;-0.002;2023-04-25T13:07:10;4.30;;;2.00;;
46719;SDS011;32452;51.382;-0.002;2023-04-25T13:09:56;7.47;;;2.05;;
46719;SDS011;32452;51.382;-0.002;2023-04-25T13:12:41;5.88;;;2.78;;
46719;SDS011;32452;51.382;-0.002;2023-04-25T13:15:27;7.93;;;2.33;;
46719;SDS011;32452;51.382;-0.002;2023-04-25T13:18:12;6.20;;;2.33;;
46719;SDS011;32452;51.382;-0.002;2023-04-25T13:20:58;6.07;;;1.58;;
46719;SDS011;32452;51.382;-0.002;2023-04-25T13:23:44;8.43;;;2.53;;
46719;SDS011;32452;51.382;-0.002;2023-04-25T13:26:32;5.63;;;2.10;;
46719;SDS011;32452;51.382;-0.002;2023-04-25T13:29:17;5.72;;;1.75;;
46719;SDS011;32452;51.382;-0.002;2023-04-25T13:32:02;5.93;;;1.65;;
46719;SDS011;32452;51.382;-0.002;2023-04-25T13:34:49;6.70;;;1.75;;
46719;SDS011;32452;51.382;-0.002;2023-04-25T13:37:35;7.57;;;2.55;;
46719;SDS011;32452;51.382;-0.002;2023-04-25T13:40:22;5.15;;;1.70;;
46719;SDS011;32452;51.382;-0.002;2023-04-25T13:43:09;7.43;;;2.00;;
46719;SDS011;32452;51.382;-0.002;2023-04-25T13:45:54;9.15;;;1.70;;
46719;SDS011;32452;51.382;-0.002;2023-04-25T13:48:41;8.30;;;2.13;;
46719;SDS011;32452;51.382;-0.002;2023-04-25T13:51:31;5.80;;;2.08;;
46719;SDS011;32452;51.382;-0.002;2023-04-25T13:54:17;5.93;;;1.85;;
46719;SDS011;32452;51.382;-0.002;2023-04-25T13:57:02;6.75;;;2.35;;
46719;SDS011;32452;51.382;-0.002;2023-04-25T13:59:48;7.35;;;1.95;;
46719;SDS011;32452;51.382;-0.002;2023-04-25T14:02:37;5.50;;;2.20;;
46719;SDS011;32452;51.382;-0.002;2023-04-25T14:05:23;7.45;;;2.40;;
46719;SDS011;32452;51.382;-0.002;2023-04-25T14:08:09;7.18;;;2.03;;
46719;SDS011;32452;51.382;-0.002;2023-04-25T14:10:55;3.90;;;1.60;;
46719;SDS011;32452;51.382;-0.002;2023-04-25T14:13:40;6.53;;;2.10;;
46719;SDS011;32452;51.382;-0.002;2023-04-25T14:16:26;4.40;;;2.00;;
46719;SDS011;32452;51.382;-0.002;2023-04-25T14:19:12;8.80;;;2.25;;
46719;SDS011;32452;51.382;-0.002;2023-04-25T14:21:58;8.15;;;2.25;;
46719;SDS011;32452;51.382;-0.002;2023-04-25T14:24:43;7.65;;;1.80;;
46719;SDS011;32452;51.382;-0.002;2023-04-25T14:27:29;7.90;;;1.85;;
46719;SDS011;32452;51.382;-0.002;2023-04-25T14:30:14;5.20;;;1.80;;
46719;SDS011;32452;51.382;-0.002;2023-04-25T14:33:00;7.40;;;2.63;;
46719;SDS011;32452;51.382;-0.002;2023-04-25T14:35:46;5.70;;;1.90;;
46719;SDS011;32452;51.382;-0.002;2023-04-25T14:38:32;7.55;;;2.20;;
46719;SDS011;32452;51.382;-0.002;2023-04-25T14:41:17;6.25;;;2.00;;
46719;SDS011;32452;51.382;-0.002;2023-04-25T14:44:03;6.50;;;2.50;;
46719;SDS011;32452;51.382;-0.002;2023-04-25T14:46:49;8.55;;;2.30;;
46719;SDS011;32452;51.382;-0.002;2023-04-25T14:49:36;7.70;;;2.55;;
46719;SDS011;32452;51.382;-0.002;2023-04-25T14:52:22;7.63;;;2.13;;
46719;SDS011;32452;51.382;-0.002;2023-04-25T14:55:08;4.55;;;1.80;;
46719;SDS011;32452;51.382;-0.002;2023-04-25T14:57:59;6.18;;;2.00;;
46719;SDS011;32452;51.382;-0.002;2023-04-25T15:00:46;5.55;;;1.83;;
46719;SDS011;32452;51.382;-0.002;2023-04-25T15:03:31;7.45;;;2.08;;
46719;SDS011;32452;51.382;-0.002;2023-04-25T15:06:18;9.85;;;2.15;;
46719;SDS011;32452;51.382;-0.002;2023-04-25T15:09:03;6.65;;;2.25;;
46719;SDS011;32452;51.382;-0.002;2023-04-25T15:11:49;12.27;;;3.33;;
46719;SDS011;32452;51.382;-0.002;2023-04-25T15:14:36;9.82;;;2.92;;
46719;SDS011;32452;51.382;-0.002;2023-04-25T15:17:21;7.60;;;2.00;;
46719;SDS011;32452;51.382;-0.002;2023-04-25T15:20:08;8.00;;;2.63;;
46719;SDS011;32452;51.382;-0.002;2023-04-25T15:22:55;5.28;;;2.28;;
46719;SDS011;32452;51.382;-0.002;2023-04-25T15:25:41;5.45;;;2.30;;
46719;SDS011;32452;51.382;-0.002;2023-04-25T15:28:27;9.02;;;2.53;;
46719;SDS011;32452;51.382;-0.002;2023-04-25T15:31:14;11.15;;;2.10;;
46719;SDS011;32452;51.382;-0.002;2023-04-25T15:34:12;5.45;;;2.17;;
46719;SDS011;32452;51.382;-0.002;2023-04-25T15:37:02;4.78;;;2.03;;
46719;SDS011;32452;51.382;-0.002;2023-04-25T15:40:10;6.85;;;2.17;;
46719;SDS011;32452;51.382;-0.002;2023-04-25T15:42:58;10.20;;;3.17;;
46719;SDS011;32452;51.382;-0.002;2023-04-25T15:45:52;7.80;;;2.47;;
46719;SDS011;32452;51.382;-0.002;2023-04-25T15:48:40;9.07;;;2.50;;
46719;SDS011;32452;51.382;-0.002;2023-04-25T15:51:28;6.88;;;2.53;;
46719;SDS011;32452;51.382;-0.002;2023-04-25T15:54:18;6.83;;;2.27;;
46719;SDS011;32452;51.382;-0.002;2023-04-25T15:57:04;6.25;;;1.90;;
46719;SDS011;32452;51.382;-0.002;2023-04-25T16:00:02;6.20;;;1.70;;
46719;SDS011;32452;51.382;-0.002;2023-04-25T16:03:03;6.20;;;2.10;;
46719;SDS011;32452;51.382;-0.002;2023-04-25T16:05:49;7.72;;;2.10;;
46719;SDS011;32452;51.382;-0.002;2023-04-25T16:08:35;6.55;;;2.20;;
46719;SDS011;32452;51.382;-0.002;2023-04-25T16:11:35;8.32;;;2.63;;
46719;SDS011;32452;51.382;-0.002;2023-04-25T16:14:28;8.32;;;2.30;;
46719;SDS011;32452;51.382;-0.002;2023-04-25T16:17:20;8.90;;;2.60;;
46719;SDS011;32452;51.382;-0.002;2023-04-25T16:20:05;6.60;;;2.08;;
46719;SDS011;32452;51.382;-0.002;2023-04-25T16:23:02;8.27;;;3.58;;
46719;SDS011;32452;51.382;-0.002;2023-04-25T16:25:54;5.60;;;1.80;;
46719;SDS011;32452;51.382;-0.002;2023-04-25T16:28:41;9.20;;;2.85;;
46719;SDS011;32452;51.382;-0.002;2023-04-25T16:31:35;8.75;;;2.75;;
46719;SDS011;32452;51.382;-0.002;2023-04-25T16:34:40;8.05;;;2.25;;
46719;SDS011;32452;51.382;-0.002;2023-04-25T16:37:32;9.30;;;2.35;;
46719;SDS011;32452;51.382;-0.002;2023-04-25T16:40:32;7.38;;;2.30;;